Time;durP1;ratioP1;P1;durP2;ratioP2;P2;SDS_P1;SDS_P2;PMS_P1;PMS_P2;Temp;Humidity;BMP_temperature;BMP_pressure;BME280_temperature;BME280_humidity;BME280_pressure;Samples;Min_cycle;Max_cycle;Signal;HPM_P1;HPM_P2
2024/04/03 00:00:49;;;;;;;2.75;1.80;;;;;;;5.17;59.00;92459.91;2030682;70;20188;-70
2024/04/03 00:03:15;;;;;;;3.25;1.40;;;;;;;5.13;59.11;92470.75;2030747;70;20552;-70
2024/04/03 00:05:40;;;;;;;4.53;2.40;;;;;;;4.98;60.49;92450.13;2034585;70;20254;-70
2024/04/03 00:08:06;;;;;;;2.97;1.85;;;;;;;5.10;59.82;92462.25;2031174;70;20148;-69
2024/04/03 00:10:32;;;;;;;2.17;1.20;;;;;;;5.37;59.23;92463.50;2034867;70;20165;-69
2024/04/03 00:12:58;;;;;;;4.15;1.30;;;;;;;4.95;60.80;92456.13;2031080;70;20143;-72
2024/04/03 00:15:24;;;;;;;2.58;1.70;;;;;;;5.00;59.88;92435.63;2030985;70;20652;-72
2024/04/03 00:17:54;;;;;;;1.90;1.30;;;;;;;5.24;59.29;92445.09;2034868;70;20148;-69
2024/04/03 00:20:22;;;;;;;2.80;1.50;;;;;;;5.19;59.88;92440.53;2034884;70;20188;-69
2024/04/03 00:22:48;;;;;;;3.72;1.42;;;;;;;5.26;58.97;92431.28;2035000;70;20243;-69
2024/04/03 00:25:14;;;;;;;4.85;1.35;;;;;;;5.22;59.40;92433.78;2034842;70;20218;-73
2024/04/03 00:27:39;;;;;;;5.50;2.00;;;;;;;4.80;60.77;92435.53;2034861;70;20234;-71
2024/04/03 00:30:05;;;;;;;3.30;1.65;;;;;;;4.97;60.19;92434.72;2034539;70;20310;-70
2024/04/03 00:32:31;;;;;;;2.25;1.42;;;;;;;5.04;59.61;92427.53;2035247;70;20505;-70
2024/04/03 00:34:57;;;;;;;2.35;1.50;;;;;;;5.23;59.50;92430.41;2034915;70;20164;-69
2024/04/03 00:37:22;;;;;;;3.50;1.50;;;;;;;5.04;59.57;92425.50;2034780;70;20140;-75
2024/04/03 00:39:55;;;;;;;2.80;1.23;;;;;;;5.10;60.22;92416.84;2031165;70;20176;-72
2024/04/03 00:42:21;;;;;;;2.10;1.13;;;;;;;5.05;59.39;92423.44;2034826;70;20225;-76
2024/04/03 00:44:48;;;;;;;1.60;1.30;;;;;;;5.05;60.52;92424.19;2028619;70;20154;-74
2024/04/03 00:47:15;;;;;;;2.08;1.30;;;;;;;5.08;59.54;92420.22;2034466;70;20183;-77
2024/04/03 00:49:45;;;;;;;5.70;1.40;;;;;;;5.04;60.03;92419.16;2034865;70;20256;-71
2024/04/03 00:52:14;;;;;;;1.27;1.00;;;;;;;5.07;58.82;92424.31;2035183;70;20148;-74
2024/04/03 00:54:41;;;;;;;2.33;1.10;;;;;;;4.99;59.69;92420.19;2034967;70;20235;-73
2024/04/03 00:57:07;;;;;;;1.02;0.55;;;;;;;4.81;60.57;92400.75;2034684;70;20148;-73
2024/04/03 00:59:34;;;;;;;2.38;1.35;;;;;;;4.29;61.76;92426.00;2034860;70;20144;-71
2024/04/03 01:02:00;;;;;;;4.25;1.60;;;;;;;4.38;61.74;92419.00;2034864;70;20570;-71
2024/04/03 01:04:26;;;;;;;2.20;1.30;;;;;;;4.65;61.81;92418.28;2034346;70;20172;-71
2024/04/03 01:06:51;;;;;;;1.83;1.33;;;;;;;4.81;60.95;92417.50;2034752;70;20159;-71
2024/04/03 01:09:17;;;;;;;3.83;1.20;;;;;;;4.49;62.03;92410.16;2034836;70;20517;-71
2024/04/03 01:11:46;;;;;;;3.53;1.23;;;;;;;4.67;61.19;92404.50;2031301;70;20140;-73
2024/04/03 01:14:13;;;;;;;3.08;1.10;;;;;;;4.91;59.89;92419.59;2035388;70;20143;-75
2024/04/03 01:16:43;;;;;;;1.80;1.40;;;;;;;4.99;59.91;92425.75;2031709;70;20156;-77
2024/04/03 01:19:09;;;;;;;1.23;0.93;;;;;;;4.80;60.64;92432.72;2035510;70;20152;-76
2024/04/03 01:21:38;;;;;;;2.25;1.20;;;;;;;4.90;60.45;92418.81;2035211;70;20188;-76
2024/04/03 01:24:04;;;;;;;3.50;1.27;;;;;;;4.70;60.61;92411.69;2035184;70;20246;-75
2024/04/03 01:26:30;;;;;;;2.42;0.90;;;;;;;4.86;58.96;92421.31;2035635;70;20231;-76
2024/04/03 01:28:56;;;;;;;4.60;1.10;;;;;;;4.91;59.51;92414.00;2035185;70;20159;-74
2024/04/03 01:31:22;;;;;;;3.97;1.20;;;;;;;4.86;59.52;92412.97;2035404;70;20148;-74
2024/04/03 01:33:48;;;;;;;2.20;1.00;;;;;;;4.90;59.03;92415.31;2035405;70;20192;-72
2024/04/03 01:36:13;;;;;;;7.65;1.00;;;;;;;4.64;60.95;92409.19;2035116;70;20190;-70
2024/04/03 01:38:39;;;;;;;3.40;1.10;;;;;;;4.53;61.35;92415.28;2034840;70;20240;-72
2024/04/03 01:41:05;;;;;;;2.63;0.90;;;;;;;4.62;60.53;92420.16;2035218;70;20152;-70
2024/04/03 01:43:31;;;;;;;2.80;1.10;;;;;;;4.53;61.39;92415.28;2034935;70;20559;-72
2024/04/03 01:46:00;;;;;;;2.13;0.90;;;;;;;4.53;61.77;92415.28;2031789;70;20200;-73
2024/04/03 01:48:26;;;;;;;2.15;0.80;;;;;;;4.37;61.21;92400.09;2034379;70;20282;-71
2024/04/03 01:50:52;;;;;;;2.15;0.80;;;;;;;4.52;59.90;92406.19;2034482;70;20159;-70
2024/04/03 01:53:18;;;;;;;1.90;1.27;;;;;;;4.68;59.27;92398.34;2030923;70;20144;-73
2024/04/03 01:55:57;;;;;;;2.38;1.00;;;;;;;4.60;60.58;92381.00;2030951;70;20235;-76
2024/04/03 01:58:23;;;;;;;1.98;0.95;;;;;;;4.57;59.92;92366.16;2034289;70;20830;-77
2024/04/03 02:00:50;;;;;;;8.88;2.58;;;;;;;4.49;60.36;92364.78;2035049;70;20183;-75
2024/04/03 02:03:16;;;;;;;4.68;2.00;;;;;;;4.59;59.11;92366.31;2034994;70;20208;-72
2024/04/03 02:05:43;;;;;;;2.88;0.70;;;;;;;4.73;56.74;92358.31;2034908;70;20206;-70
2024/04/03 02:08:09;;;;;;;2.95;0.82;;;;;;;4.40;59.17;92360.66;2031394;70;20227;-72
2024/04/03 02:10:34;;;;;;;2.35;0.60;;;;;;;4.59;57.92;92352.38;2031488;70;20580;-71
2024/04/03 02:13:00;;;;;;;1.05;0.60;;;;;;;4.58;57.14;92356.47;2034698;70;20712;-71
2024/04/03 02:15:25;;;;;;;0.63;0.43;;;;;;;4.62;57.66;92353.25;2034798;70;20183;-70
2024/04/03 02:17:51;;;;;;;0.57;0.43;;;;;;;4.27;59.86;92347.81;2034950;70;20607;-69
2024/04/03 02:20:17;;;;;;;0.98;0.55;;;;;;;4.51;58.46;92343.38;2035005;70;20576;-72
2024/04/03 02:22:45;;;;;;;0.70;0.60;;;;;;;4.56;58.54;92336.06;2035116;70;20180;-75
2024/04/03 02:25:11;;;;;;;1.73;0.60;;;;;;;4.37;59.99;92331.16;2034741;70;20151;-72
2024/04/03 02:27:36;;;;;;;3.55;0.70;;;;;;;4.34;58.93;92330.25;2034751;70;20581;-73
2024/04/03 02:30:03;;;;;;;1.20;0.70;;;;;;;4.32;59.27;92341.25;2034799;70;20294;-75
2024/04/03 02:32:28;;;;;;;1.95;0.70;;;;;;;4.31;59.41;92342.56;2035084;70;20282;-75
2024/04/03 02:34:55;;;;;;;1.05;0.60;;;;;;;4.33;59.15;92330.84;2035062;70;20152;-74
2024/04/03 02:37:21;;;;;;;1.30;0.70;;;;;;;4.40;59.42;92341.16;2034836;70;20147;-71
2024/04/03 02:39:46;;;;;;;2.40;0.80;;;;;;;3.52;61.43;92344.69;2034882;70;20180;-71
2024/04/03 02:42:12;;;;;;;2.80;0.80;;;;;;;3.78;62.17;92340.47;2035016;70;20148;-70
2024/04/03 02:44:37;;;;;;;1.38;0.88;;;;;;;3.91;61.49;92326.22;2034650;70;20143;-70
2024/04/03 02:47:03;;;;;;;2.80;1.55;;;;;;;3.87;61.80;92331.47;2034910;70;20186;-69
2024/04/03 02:49:29;;;;;;;3.08;2.00;;;;;;;3.99;61.00;92332.41;2031326;70;20253;-70
2024/04/03 02:51:55;;;;;;;2.88;1.23;;;;;;;4.10;60.65;92344.34;2034938;70;20162;-71
2024/04/03 02:54:21;;;;;;;3.67;1.40;;;;;;;3.93;61.49;92339.53;2034889;70;20144;-70
2024/04/03 02:56:46;;;;;;;9.07;1.67;;;;;;;3.86;61.63;92335.56;2034914;70;20548;-70
2024/04/03 02:59:12;;;;;;;4.18;1.20;;;;;;;3.92;62.13;92335.28;2034544;70;20156;-71
2024/04/03 03:01:37;;;;;;;4.13;1.63;;;;;;;3.74;62.15;92329.75;2035115;70;20136;-69
2024/04/03 03:04:03;;;;;;;2.35;1.10;;;;;;;3.82;61.90;92332.44;2034519;70;20151;-70
2024/04/03 03:06:28;;;;;;;3.08;1.05;;;;;;;3.71;62.25;92324.59;2034692;70;20132;-76
2024/04/03 03:08:54;;;;;;;2.22;1.02;;;;;;;3.77;62.47;92330.66;2034781;70;20219;-74
2024/04/03 03:11:20;;;;;;;1.15;0.85;;;;;;;3.86;62.34;92321.63;2034914;70;20463;-72
2024/04/03 03:13:45;;;;;;;1.83;1.05;;;;;;;3.99;61.39;92323.34;2034758;70;20391;-70
2024/04/03 03:16:11;;;;;;;2.83;0.82;;;;;;;3.98;60.89;92321.84;2034598;70;20191;-71
2024/04/03 03:18:36;;;;;;;1.80;1.10;;;;;;;3.54;63.24;92314.25;2034699;70;20152;-69
2024/04/03 03:21:02;;;;;;;1.80;1.20;;;;;;;3.75;62.50;92327.69;2034813;70;20168;-72
2024/04/03 03:23:28;;;;;;;1.77;1.02;;;;;;;3.71;62.88;92322.56;2034826;70;20586;-73
2024/04/03 03:25:53;;;;;;;3.30;1.08;;;;;;;3.66;62.96;92329.09;2031251;70;20594;-73
2024/04/03 03:28:20;;;;;;;4.72;1.15;;;;;;;3.61;62.92;92326.56;2034723;70;20235;-71
2024/04/03 03:30:47;;;;;;;1.77;0.95;;;;;;;3.65;62.43;92313.72;2034576;70;20156;-72
2024/04/03 03:33:13;;;;;;;1.95;1.25;;;;;;;3.76;61.99;92334.75;2034829;70;20223;-70
2024/04/03 03:35:38;;;;;;;5.60;1.20;;;;;;;3.87;62.40;92334.25;2034979;70;20649;-76
2024/04/03 03:38:04;;;;;;;4.95;1.52;;;;;;;3.80;61.99;92333.03;2034808;70;20140;-74
2024/04/03 03:40:32;;;;;;;2.70;1.10;;;;;;;3.76;61.82;92323.63;2034780;70;20186;-72
2024/04/03 03:42:57;;;;;;;14.10;6.55;;;;;;;3.65;62.43;92324.84;2034769;70;20148;-70
2024/04/03 03:45:23;;;;;;;12.15;6.03;;;;;;;3.83;62.71;92331.88;2031130;70;20239;-69
2024/04/03 03:47:49;;;;;;;8.82;4.55;;;;;;;3.83;62.22;92322.78;2034677;70;20156;-69
2024/04/03 03:53:00;;;;;;;8.75;4.88;;;;;;;3.84;62.33;92296.41;2034962;70;20210;-70
2024/04/03 03:55:30;;;;;;;12.65;4.80;;;;;;;3.78;63.00;92299.44;2034592;70;20634;-70
2024/04/03 03:57:56;;;;;;;7.35;4.35;;;;;;;3.95;62.74;92311.88;2034549;70;20633;-70
2024/04/03 04:00:22;;;;;;;9.10;4.88;;;;;;;3.90;62.69;92313.59;2034970;70;20239;-71
2024/04/03 04:02:48;;;;;;;8.48;4.30;;;;;;;3.86;63.56;92304.94;2034753;70;20247;-71
2024/04/03 04:05:13;;;;;;;7.93;4.30;;;;;;;4.00;62.50;92302.50;2034605;70;20231;-72
2024/04/03 04:07:39;;;;;;;6.05;3.78;;;;;;;3.94;62.27;92305.56;2034524;70;20202;-70
2024/04/03 04:10:05;;;;;;;6.80;3.65;;;;;;;3.87;62.60;92308.44;2034838;70;20148;-70
2024/04/03 04:12:30;;;;;;;6.13;2.80;;;;;;;3.91;62.45;92286.50;2034864;70;20157;-70
2024/04/03 04:14:57;;;;;;;4.90;2.80;;;;;;;3.99;62.78;92299.00;2034933;70;20657;-74
2024/04/03 04:17:22;;;;;;;3.10;2.28;;;;;;;4.08;62.22;92294.78;2031238;70;20156;-75
2024/04/03 04:19:52;;;;;;;3.72;2.17;;;;;;;4.03;61.69;92298.56;2034807;70;20143;-71
2024/04/03 04:22:17;;;;;;;3.83;1.55;;;;;;;4.01;62.39;92299.13;2034641;70;20148;-71
2024/04/03 04:24:46;;;;;;;4.97;1.90;;;;;;;3.88;62.31;92307.84;2034661;70;20143;-70
2024/04/03 04:27:12;;;;;;;4.40;2.20;;;;;;;3.93;62.48;92292.19;2034809;70;20343;-70
2024/04/03 04:29:42;;;;;;;4.05;1.90;;;;;;;3.95;62.79;92295.88;2034751;70;20140;-70
2024/04/03 04:32:11;;;;;;;4.60;2.15;;;;;;;3.51;64.98;92302.19;2034706;70;20148;-72
2024/04/03 04:34:41;;;;;;;4.32;2.47;;;;;;;3.67;64.64;92297.19;2034789;70;20617;-71
2024/04/03 04:37:06;;;;;;;6.18;2.50;;;;;;;3.82;64.09;92294.19;2034773;70;20207;-73
2024/04/03 04:39:32;;;;;;;4.45;2.00;;;;;;;3.83;63.67;92303.28;2031341;70;20175;-74
2024/04/03 04:41:58;;;;;;;3.53;2.35;;;;;;;3.81;64.54;92303.88;2034550;70;20176;-73
2024/04/03 04:44:24;;;;;;;4.85;2.80;;;;;;;3.90;63.89;92299.69;2034622;70;20578;-73
2024/04/03 04:46:54;;;;;;;6.60;2.35;;;;;;;3.88;63.25;92285.59;2034766;70;20182;-74
2024/04/03 04:49:21;;;;;;;4.35;2.50;;;;;;;3.97;63.59;92298.09;2034677;70;20152;-73
2024/04/03 04:51:47;;;;;;;4.10;2.38;;;;;;;3.92;63.58;92277.53;2034837;70;20173;-72
2024/04/03 04:54:16;;;;;;;5.63;2.40;;;;;;;4.01;63.90;92287.28;2034817;70;20581;-76
2024/04/03 04:56:43;;;;;;;4.47;2.72;;;;;;;4.12;63.72;92294.34;2034578;70;20180;-76
2024/04/03 04:59:09;;;;;;;3.70;2.35;;;;;;;4.01;63.41;92278.91;2030771;70;20238;-71
2024/04/03 05:01:36;;;;;;;5.05;2.28;;;;;;;3.99;64.34;92284.34;2034800;70;20247;-71
2024/04/03 05:04:04;;;;;;;5.13;2.60;;;;;;;4.20;63.36;92295.72;2034647;70;20148;-72
2024/04/03 05:06:30;;;;;;;6.60;2.50;;;;;;;4.26;63.03;92296.19;2034752;70;20140;-75
2024/04/03 05:08:57;;;;;;;5.13;2.58;;;;;;;4.24;63.65;92293.25;2034554;70;20198;-76
2024/04/03 05:11:23;;;;;;;5.60;3.05;;;;;;;4.16;63.17;92289.09;2031025;70;20613;-73
2024/04/03 05:13:49;;;;;;;4.32;2.47;;;;;;;4.41;63.53;92297.28;2034344;70;20227;-74
2024/04/03 05:16:19;;;;;;;3.13;2.40;;;;;;;4.36;63.91;92299.03;2034163;70;20213;-75
2024/04/03 05:18:45;;;;;;;4.80;2.50;;;;;;;4.42;63.53;92293.19;2034691;70;20562;-76
2024/04/03 05:21:11;;;;;;;8.27;2.88;;;;;;;4.33;64.08;92275.09;2034541;70;20152;-71
2024/04/03 05:23:37;;;;;;;5.53;2.60;;;;;;;4.41;62.91;92264.56;2030930;70;20220;-74
2024/04/03 05:26:10;;;;;;;9.15;3.50;;;;;;;4.41;63.89;92277.78;2034609;70;20602;-76
2024/04/03 05:28:36;;;;;;;8.85;3.42;;;;;;;4.56;62.31;92280.31;2034295;70;20652;-74
2024/04/03 05:31:06;;;;;;;8.18;3.10;;;;;;;4.69;62.07;92274.34;2034538;70;20268;-72
2024/04/03 05:33:36;;;;;;;8.93;3.50;;;;;;;4.74;61.69;92267.75;2031050;70;20144;-75
2024/04/03 05:36:04;;;;;;;11.02;3.80;;;;;;;4.71;61.57;92273.75;2034442;70;20510;-74
2024/04/03 05:38:30;;;;;;;6.07;3.08;;;;;;;4.76;62.16;92269.94;2034421;70;20148;-71
2024/04/03 05:40:56;;;;;;;7.80;3.70;;;;;;;4.88;62.29;92267.34;2034363;70;20152;-71
2024/04/03 05:43:26;;;;;;;8.85;3.42;;;;;;;5.01;61.79;92266.91;2034260;70;20247;-71
2024/04/03 05:45:53;;;;;;;6.90;3.63;;;;;;;4.49;63.37;92276.34;2034377;70;20502;-74
2024/04/03 05:48:26;;;;;;;7.05;3.55;;;;;;;4.84;62.39;92265.69;2034507;70;20178;-71
2024/04/03 05:51:02;;;;;;;8.82;3.42;;;;;;;5.02;61.71;92271.91;2031586;70;20611;-71
2024/04/03 05:53:28;;;;;;;7.78;3.47;;;;;;;4.98;62.19;92276.44;2034972;70;20577;-71
2024/04/03 05:55:57;;;;;;;7.65;3.58;;;;;;;5.13;62.62;92269.84;2034745;70;20155;-72
2024/04/03 05:58:24;;;;;;;9.32;4.10;;;;;;;5.27;62.39;92265.31;2034549;70;20160;-71
2024/04/03 06:00:51;;;;;;;7.90;4.10;;;;;;;5.34;61.59;92259.56;2035110;70;20211;-71
2024/04/03 06:03:18;;;;;;;11.23;3.80;;;;;;;5.49;61.28;92264.13;2035267;70;20384;-73
2024/04/03 06:05:45;;;;;;;6.93;2.83;;;;;;;5.04;62.44;92258.13;2035494;70;20549;-76
2024/04/03 06:08:11;;;;;;;39.28;9.35;;;;;;;5.39;61.79;92268.25;2035444;70;20156;-77
2024/04/03 06:10:38;;;;;;;34.80;9.15;;;;;;;5.56;61.15;92256.94;2035244;70;20272;-74
2024/04/03 06:13:05;;;;;;;24.05;7.45;;;;;;;5.68;61.85;92249.44;2035022;70;20470;-73
2024/04/03 06:15:34;;;;;;;14.13;5.00;;;;;;;5.71;61.04;92251.03;2035012;70;20227;-73
2024/04/03 06:18:00;;;;;;;8.57;4.07;;;;;;;5.78;59.88;92247.34;2035075;70;20171;-74
2024/04/03 06:20:26;;;;;;;11.15;5.10;;;;;;;5.86;59.61;92238.78;2035246;70;20223;-74
2024/04/03 06:22:52;;;;;;;10.75;4.40;;;;;;;6.02;60.12;92245.56;2035476;70;20239;-73
2024/04/03 06:25:21;;;;;;;8.82;3.85;;;;;;;6.09;59.61;92250.25;2035493;70;20282;-73
2024/04/03 06:27:47;;;;;;;8.48;3.33;;;;;;;5.87;59.03;92245.88;2035510;70;20669;-73
2024/04/03 06:30:13;;;;;;;10.35;3.35;;;;;;;6.04;58.32;92239.34;2031709;70;20636;-72
2024/04/03 06:32:39;;;;;;;6.72;2.70;;;;;;;6.06;58.40;92245.84;2035110;70;20144;-72
2024/04/03 06:35:05;;;;;;;3.38;2.10;;;;;;;5.45;61.84;92249.13;2035029;70;20175;-75
2024/04/03 06:37:31;;;;;;;5.47;2.35;;;;;;;5.85;59.98;92256.88;2035244;70;20545;-75
2024/04/03 06:39:58;;;;;;;7.40;2.45;;;;;;;6.11;59.52;92252.44;2031674;70;20167;-75
2024/04/03 06:42:24;;;;;;;7.80;3.40;;;;;;;6.40;59.14;92251.59;2031841;70;20156;-74
2024/04/03 06:44:53;;;;;;;5.07;2.42;;;;;;;6.55;59.04;92248.44;2035360;70;20136;-73
2024/04/03 06:47:18;;;;;;;7.18;2.40;;;;;;;6.55;58.59;92254.03;2035131;70;20151;-73
2024/04/03 06:49:44;;;;;;;12.05;7.90;;;;;;;6.24;59.35;92249.16;2035383;70;20152;-78
2024/04/03 06:52:09;;;;;;;13.02;6.60;;;;;;;6.67;58.41;92263.25;2035361;70;20238;-73
2024/04/03 06:54:35;;;;;;;8.07;3.58;;;;;;;6.88;58.98;92262.56;2035201;70;20568;-73
2024/04/03 06:57:05;;;;;;;12.63;3.72;;;;;;;7.11;58.26;92259.19;2035295;70;20537;-73
2024/04/03 06:59:31;;;;;;;7.03;3.35;;;;;;;6.83;59.00;92266.44;2034984;70;20151;-75
2024/04/03 07:01:57;;;;;;;9.43;3.08;;;;;;;6.73;59.77;92248.94;2035395;70;20530;-72
2024/04/03 07:04:23;;;;;;;6.00;3.28;;;;;;;6.49;61.33;92262.00;2035022;70;20190;-72
2024/04/03 07:06:49;;;;;;;5.28;2.90;;;;;;;7.03;59.23;92270.56;2035323;70;20550;-74
2024/04/03 07:09:14;;;;;;;4.75;2.58;;;;;;;6.93;57.84;92260.78;2034938;70;20330;-74
2024/04/03 07:11:40;;;;;;;6.45;2.97;;;;;;;7.38;57.83;92256.78;2035171;70;20585;-74
2024/04/03 07:14:06;;;;;;;4.97;2.85;;;;;;;7.24;57.10;92260.69;2034953;70;20159;-76
2024/04/03 07:16:31;;;;;;;7.68;2.60;;;;;;;7.32;57.08;92259.16;2031466;70;20223;-76
2024/04/03 07:18:57;;;;;;;6.97;2.80;;;;;;;7.08;56.67;92247.09;2034666;70;20216;-76
2024/04/03 07:21:23;;;;;;;6.55;3.03;;;;;;;7.60;54.97;92263.06;2034829;70;20502;-77
2024/04/03 07:23:49;;;;;;;6.50;2.60;;;;;;;8.06;55.17;92267.38;2035120;70;20182;-75
2024/04/03 07:26:17;;;;;;;8.75;3.50;;;;;;;8.02;55.83;92260.81;2034753;70;20155;-75
2024/04/03 07:28:43;;;;;;;6.28;3.38;;;;;;;8.36;55.30;92270.63;2034696;70;20156;-76
2024/04/03 07:31:09;;;;;;;6.03;3.10;;;;;;;8.53;54.40;92275.91;2034979;70;20154;-78
2024/04/03 07:33:34;;;;;;;6.18;3.40;;;;;;;8.61;53.60;92284.06;2035209;70;20183;-79
2024/04/03 07:36:01;;;;;;;10.07;3.80;;;;;;;8.63;54.32;92281.41;2034727;70;20605;-75
2024/04/03 07:38:44;;;;;;;9.25;3.65;;;;;;;8.60;55.52;92286.16;2039250;70;20204;-74
2024/04/03 07:41:12;;;;;;;9.93;4.07;;;;;;;8.78;54.31;92292.16;2040342;70;20558;-76
2024/04/03 07:43:39;;;;;;;6.15;3.40;;;;;;;9.22;52.44;92287.75;2035725;70;20148;-75
2024/04/03 07:46:07;;;;;;;6.10;2.90;;;;;;;9.44;51.99;92291.13;2038621;70;20183;-76
2024/04/03 07:48:33;;;;;;;6.32;2.50;;;;;;;9.36;49.67;92291.38;2041040;70;20158;-75
2024/04/03 07:51:10;;;;;;;6.65;2.72;;;;;;;9.40;49.36;92277.56;2041439;70;20568;-74
2024/04/03 07:54:08;;;;;;;3.15;1.73;;;;;;;9.15;48.51;92271.88;2041178;70;20152;-73
2024/04/03 07:56:34;;;;;;;2.45;1.75;;;;;;;9.06;47.36;92286.78;2040936;70;20155;-74
2024/04/03 07:59:02;;;;;;;3.40;1.70;;;;;;;9.26;46.27;92296.41;2040977;70;20156;-74
2024/04/03 08:01:28;;;;;;;3.53;1.42;;;;;;;9.61;45.85;92299.13;2035072;70;20175;-73
2024/04/03 08:03:54;;;;;;;4.20;1.40;;;;;;;9.91;45.84;92285.38;2034801;70;20156;-73
2024/04/03 08:06:20;;;;;;;1.92;1.20;;;;;;;9.78;44.80;92294.44;2034887;70;20156;-76
2024/04/03 08:08:45;;;;;;;0.80;0.63;;;;;;;9.80;43.39;92291.75;2031520;70;20156;-76
2024/04/03 08:11:11;;;;;;;1.77;0.95;;;;;;;9.91;43.64;92294.53;2035108;70;20614;-77
2024/04/03 08:13:36;;;;;;;5.20;1.50;;;;;;;9.15;44.12;92294.34;2035011;70;20183;-75
2024/04/03 08:16:04;;;;;;;2.22;1.45;;;;;;;9.34;43.89;92293.31;2034961;70;20568;-73
2024/04/03 08:18:30;;;;;;;4.53;1.95;;;;;;;9.52;44.21;92279.63;2035166;70;20152;-74
2024/04/03 08:21:22;;;;;;;4.57;2.22;;;;;;;9.77;44.22;92299.34;2040017;70;20124;-73
2024/04/03 08:24:35;;;;;;;2.75;1.70;;;;;;;9.87;43.72;92294.28;2041593;70;20195;-74
2024/04/03 08:27:02;;;;;;;4.10;2.60;;;;;;;10.36;43.12;92294.22;2040024;70;20159;-74
2024/04/03 08:29:31;;;;;;;3.75;1.92;;;;;;;10.67;43.72;92295.88;2038623;70;20167;-73
2024/04/03 08:31:58;;;;;;;4.85;1.60;;;;;;;10.19;42.80;92294.66;2039058;70;20167;-73
2024/04/03 08:34:23;;;;;;;2.72;1.50;;;;;;;10.36;42.47;92287.88;2040642;70;20156;-72
2024/04/03 08:36:49;;;;;;;2.88;1.45;;;;;;;10.53;42.48;92276.13;2036281;70;20151;-73
2024/04/03 08:39:15;;;;;;;3.47;1.42;;;;;;;10.86;41.67;92286.34;2036378;70;20155;-72
2024/04/03 08:41:43;;;;;;;2.63;1.10;;;;;;;10.79;41.10;92292.97;2038205;70;20135;-74
2024/04/03 08:44:12;;;;;;;3.17;1.30;;;;;;;11.09;41.35;92286.16;2040020;70;20144;-74
2024/04/03 08:46:39;;;;;;;1.75;1.15;;;;;;;10.84;40.40;92277.75;2039693;70;20228;-73
2024/04/03 08:49:08;;;;;;;2.60;0.85;;;;;;;10.85;40.57;92271.50;2040994;70;20128;-73
2024/04/03 08:51:38;;;;;;;1.48;0.90;;;;;;;11.15;41.12;92266.00;2040083;70;20235;-74
2024/04/03 08:54:04;;;;;;;3.97;1.13;;;;;;;11.19;39.65;92243.69;2039237;70;20140;-73
2024/04/03 08:56:34;;;;;;;1.83;1.02;;;;;;;10.71;39.84;92258.75;2039357;70;20231;-72
2024/04/03 08:58:59;;;;;;;2.22;1.17;;;;;;;10.76;40.36;92235.09;2035336;70;20148;-73
2024/04/03 09:01:25;;;;;;;4.15;1.60;;;;;;;11.29;39.49;92251.91;2034701;70;20178;-74
2024/04/03 09:03:51;;;;;;;1.73;1.10;;;;;;;11.71;39.51;92247.66;2034560;70;20601;-75
2024/04/03 09:06:16;;;;;;;2.30;0.75;;;;;;;11.72;39.17;92243.50;2034341;70;20172;-76
2024/04/03 09:08:43;;;;;;;2.28;0.90;;;;;;;11.64;38.85;92243.09;2031075;70;20616;-74
2024/04/03 09:11:10;;;;;;;1.50;0.65;;;;;;;11.64;38.02;92235.38;2034750;70;20139;-74
2024/04/03 09:13:35;;;;;;;1.02;0.82;;;;;;;12.02;37.72;92229.44;2034864;70;20148;-74
2024/04/03 09:16:01;;;;;;;1.30;0.70;;;;;;;12.51;37.85;92220.41;2034749;70;20144;-73
2024/04/03 09:18:27;;;;;;;1.52;0.70;;;;;;;12.79;37.96;92210.44;2034522;70;20239;-73
2024/04/03 09:20:53;;;;;;;3.53;0.70;;;;;;;13.00;38.76;92209.22;2034747;70;20164;-73
2024/04/03 09:23:18;;;;;;;2.13;0.90;;;;;;;12.63;36.54;92199.13;2034580;70;20158;-74
2024/04/03 09:25:44;;;;;;;1.77;0.95;;;;;;;13.00;38.07;92188.72;2034443;70;20562;-73
2024/04/03 09:28:11;;;;;;;2.08;1.00;;;;;;;13.22;37.48;92193.25;2034398;70;20152;-76
2024/04/03 09:30:46;;;;;;;1.60;0.90;;;;;;;13.38;37.99;92192.50;2034574;70;20167;-76
2024/04/03 09:33:12;;;;;;;1.23;0.80;;;;;;;13.68;37.77;92196.59;2034847;70;20148;-75
2024/04/03 09:35:42;;;;;;;1.77;0.80;;;;;;;13.63;36.54;92177.28;2035111;70;20145;-77
2024/04/03 09:38:11;;;;;;;5.25;0.93;;;;;;;13.67;36.81;92189.47;2035048;70;20171;-77
2024/04/03 09:40:39;;;;;;;3.22;2.05;;;;;;;13.34;36.72;92184.59;2031409;70;20617;-78
2024/04/03 09:43:11;;;;;;;3.10;1.00;;;;;;;13.20;37.42;92186.78;2035024;70;20554;-78
2024/04/03 09:45:36;;;;;;;1.63;1.00;;;;;;;13.67;36.78;92185.94;2035140;70;20235;-74
2024/04/03 09:48:04;;;;;;;2.65;1.42;;;;;;;14.28;36.44;92190.47;2035236;70;20274;-74
2024/04/03 09:50:45;;;;;;;3.50;1.00;;;;;;;14.35;35.97;92189.34;2035317;70;20558;-73
2024/04/03 09:53:22;;;;;;;3.25;1.00;;;;;;;15.81;36.70;92184.69;2035107;70;20201;-75
2024/04/03 09:55:52;;;;;;;3.70;2.17;;;;;;;16.07;36.28;92187.66;2035238;70;20160;-73
2024/04/03 09:58:20;;;;;;;2.95;0.90;;;;;;;15.55;35.81;92190.16;2035171;70;20179;-74
2024/04/03 10:00:59;;;;;;;1.45;0.80;;;;;;;15.64;37.78;92169.22;2035331;70;20258;-72
2024/04/03 10:03:28;;;;;;;1.70;1.05;;;;;;;15.66;37.82;92192.69;2035263;70;20140;-74
2024/04/03 10:06:03;;;;;;;1.95;1.17;;;;;;;15.03;38.54;92182.00;2031929;70;20144;-73
2024/04/03 10:08:37;;;;;;;2.05;0.80;;;;;;;16.27;38.66;92179.78;2035490;70;20135;-74
2024/04/03 10:11:07;;;;;;;1.38;0.60;;;;;;;16.68;34.85;92178.19;2035506;70;20502;-73
2024/04/03 10:13:35;;;;;;;1.00;0.60;;;;;;;16.70;36.29;92167.59;2035332;70;20597;-73
2024/04/03 10:16:06;;;;;;;2.28;0.60;;;;;;;19.80;33.29;92177.25;2034705;70;20164;-73
2024/04/03 10:18:43;;;;;;;1.10;0.60;;;;;;;19.87;33.21;92161.66;2031330;70;20227;-73
2024/04/03 10:21:10;;;;;;;2.20;0.70;;;;;;;22.17;31.96;92169.09;2035108;70;20156;-72
2024/04/03 10:23:49;;;;;;;2.33;1.00;;;;;;;22.79;29.79;92165.31;2035328;70;20175;-77
2024/04/03 10:26:16;;;;;;;2.30;0.80;;;;;;;20.79;29.75;92158.13;2035299;70;20144;-75
2024/04/03 10:28:42;;;;;;;1.15;0.80;;;;;;;19.57;30.70;92146.81;2034923;70;20152;-74
2024/04/03 10:31:09;;;;;;;2.65;0.60;;;;;;;18.90;31.47;92149.75;2035162;70;20239;-74
2024/04/03 10:33:36;;;;;;;1.17;0.60;;;;;;;19.32;31.88;92146.31;2035116;70;20143;-76
2024/04/03 10:36:02;;;;;;;0.73;0.70;;;;;;;19.40;31.27;92145.75;2034761;70;20152;-75
2024/04/03 10:38:28;;;;;;;1.70;0.50;;;;;;;18.68;32.42;92141.41;2034896;70;20525;-77
2024/04/03 10:40:57;;;;;;;1.85;0.52;;;;;;;18.04;32.54;92142.09;2034803;70;20163;-77
2024/04/03 10:43:23;;;;;;;2.22;0.50;;;;;;;17.73;33.72;92140.63;2034872;70;20300;-75
2024/04/03 10:45:50;;;;;;;2.17;0.40;;;;;;;17.49;34.10;92131.41;2034831;70;20247;-79
2024/04/03 10:48:16;;;;;;;0.90;0.50;;;;;;;17.86;33.71;92132.38;2035129;70;20148;-76
2024/04/03 10:50:43;;;;;;;0.57;0.40;;;;;;;17.87;33.87;92130.97;2035120;70;20175;-77
2024/04/03 10:53:11;;;;;;;0.98;0.40;;;;;;;17.03;34.74;92132.31;2035245;70;20149;-77
2024/04/03 10:55:38;;;;;;;0.70;0.45;;;;;;;16.95;34.47;92128.53;2035030;70;20526;-76
2024/04/03 10:58:06;;;;;;;1.23;0.40;;;;;;;17.11;34.29;92128.25;2034614;70;20486;-75
2024/04/03 11:00:32;;;;;;;1.15;0.50;;;;;;;16.73;34.91;92125.78;2035031;70;20152;-77
2024/04/03 11:03:01;;;;;;;0.45;0.45;;;;;;;17.05;35.24;92111.75;2035004;70;20148;-75
2024/04/03 11:05:28;;;;;;;2.88;0.63;;;;;;;16.93;34.86;92112.13;2031653;70;20167;-76
2024/04/03 11:07:54;;;;;;;2.40;0.60;;;;;;;15.95;35.12;92112.06;2034933;70;20151;-76
2024/04/03 11:10:23;;;;;;;1.15;0.50;;;;;;;16.15;35.64;92111.97;2035111;70;20145;-76
2024/04/03 11:12:48;;;;;;;0.75;0.50;;;;;;;16.69;35.38;92105.75;2035092;70;20170;-76
2024/04/03 11:15:24;;;;;;;1.10;0.60;;;;;;;16.74;35.05;92102.38;2034680;70;20152;-76
2024/04/03 11:17:50;;;;;;;0.82;0.50;;;;;;;15.96;35.33;92113.50;2034686;70;20211;-76
2024/04/03 11:20:15;;;;;;;1.13;0.50;;;;;;;16.53;35.81;92103.88;2035085;70;20156;-77
2024/04/03 11:22:41;;;;;;;0.65;0.50;;;;;;;16.12;36.65;92089.84;2035173;70;20203;-74
2024/04/03 11:25:12;;;;;;;1.20;0.60;;;;;;;16.65;36.89;92100.66;2034769;70;20249;-74
2024/04/03 11:27:40;;;;;;;0.98;0.40;;;;;;;16.74;36.52;92107.34;2034774;70;20148;-75
2024/04/03 11:30:08;;;;;;;3.35;0.70;;;;;;;16.58;35.76;92090.50;2034927;70;20660;-78
2024/04/03 11:32:34;;;;;;;3.25;0.95;;;;;;;16.71;35.50;92094.44;2031355;70;20270;-73
2024/04/03 11:35:00;;;;;;;2.53;0.50;;;;;;;17.21;34.90;92088.72;2034677;70;20618;-74
2024/04/03 11:37:26;;;;;;;1.75;0.70;;;;;;;17.09;34.99;92074.91;2034892;70;20147;-74
2024/04/03 11:39:52;;;;;;;1.13;0.68;;;;;;;17.22;34.31;92061.72;2034971;70;20140;-75
2024/04/03 11:42:18;;;;;;;1.08;0.55;;;;;;;17.38;34.62;92081.34;2035262;70;20297;-73